sensor_id;sensor_type;location;lat;lon;timestamp;temperature;humidity
73939;DHT22;62291;47.554;8.504;2022-12-18T00:00:58;-2.00;99.90
73939;DHT22;62291;47.554;8.504;2022-12-18T00:03:24;-2.00;99.90
73939;DHT22;62291;47.554;8.504;2022-12-18T00:05:51;-2.10;99.90
73939;DHT22;62291;47.554;8.504;2022-12-18T00:08:17;-2.20;99.90
73939;DHT22;62291;47.554;8.504;2022-12-18T00:10:44;-2.30;99.90
73939;DHT22;62291;47.554;8.504;2022-12-18T00:13:12;-2.30;99.90
73939;DHT22;62291;47.554;8.504;2022-12-18T00:15:38;-2.30;99.90
73939;DHT22;62291;47.554;8.504;2022-12-18T00:18:05;-2.30;99.90
73939;DHT22;62291;47.554;8.504;2022-12-18T00:20:32;-2.30;99.90
73939;DHT22;62291;47.554;8.504;2022-12-18T00:23:00;-2.30;99.90
73939;DHT22;62291;47.554;8.504;2022-12-18T00:25:26;-2.20;99.90
73939;DHT22;62291;47.554;8.504;2022-12-18T00:27:52;-2.10;99.90
73939;DHT22;62291;47.554;8.504;2022-12-18T00:30:18;-2.10;99.90
73939;DHT22;62291;47.554;8.504;2022-12-18T00:32:43;-2.10;99.90
73939;DHT22;62291;47.554;8.504;2022-12-18T00:35:09;-2.10;99.90
73939;DHT22;62291;47.554;8.504;2022-12-18T00:37:35;-2.10;99.90
73939;DHT22;62291;47.554;8.504;2022-12-18T00:40:01;-2.00;99.90
73939;DHT22;62291;47.554;8.504;2022-12-18T00:42:27;-2.00;99.90
73939;DHT22;62291;47.554;8.504;2022-12-18T00:45:11;-1.90;99.90
73939;DHT22;62291;47.554;8.504;2022-12-18T00:47:37;-1.80;99.90
73939;DHT22;62291;47.554;8.504;2022-12-18T00:50:03;-1.80;99.90
73939;DHT22;62291;47.554;8.504;2022-12-18T00:52:28;-1.90;99.90
73939;DHT22;62291;47.554;8.504;2022-12-18T00:54:54;-1.90;99.90
73939;DHT22;62291;47.554;8.504;2022-12-18T00:57:20;-1.90;99.90
73939;DHT22;62291;47.554;8.504;2022-12-18T00:59:45;-1.80;99.90
73939;DHT22;62291;47.554;8.504;2022-12-18T01:02:11;-1.70;99.90
73939;DHT22;62291;47.554;8.504;2022-12-18T01:04:37;-1.70;99.90
73939;DHT22;62291;47.554;8.504;2022-12-18T01:07:03;-1.70;99.90
73939;DHT22;62291;47.554;8.504;2022-12-18T01:09:28;-1.80;99.90
73939;DHT22;62291;47.554;8.504;2022-12-18T01:11:54;-1.80;99.90
73939;DHT22;62291;47.554;8.504;2022-12-18T01:14:19;-1.90;99.90
73939;DHT22;62291;47.554;8.504;2022-12-18T01:16:45;-1.80;99.90
73939;DHT22;62291;47.554;8.504;2022-12-18T01:19:11;-1.80;99.90
73939;DHT22;62291;47.554;8.504;2022-12-18T01:21:36;-1.80;99.90
73939;DHT22;62291;47.554;8.504;2022-12-18T01:24:02;-1.70;99.90
73939;DHT22;62291;47.554;8.504;2022-12-18T01:26:28;-1.60;99.90
73939;DHT22;62291;47.554;8.504;2022-12-18T01:28:56;-1.60;99.90
73939;DHT22;62291;47.554;8.504;2022-12-18T01:31:24;-1.60;99.90
73939;DHT22;62291;47.554;8.504;2022-12-18T01:33:51;-1.70;99.90
73939;DHT22;62291;47.554;8.504;2022-12-18T01:36:26;-1.70;99.90
73939;DHT22;62291;47.554;8.504;2022-12-18T01:38:53;-1.80;99.90
73939;DHT22;62291;47.554;8.504;2022-12-18T01:41:24;-1.90;99.90
73939;DHT22;62291;47.554;8.504;2022-12-18T01:43:56;-1.90;99.90
73939;DHT22;62291;47.554;8.504;2022-12-18T01:46:26;-1.90;99.90
73939;DHT22;62291;47.554;8.504;2022-12-18T01:48:55;-2.00;99.90
73939;DHT22;62291;47.554;8.504;2022-12-18T01:51:22;-2.10;99.90
73939;DHT22;62291;47.554;8.504;2022-12-18T01:53:48;-1.90;99.90
73939;DHT22;62291;47.554;8.504;2022-12-18T01:56:16;-1.90;99.90
73939;DHT22;62291;47.554;8.504;2022-12-18T01:59:02;-1.90;99.90
73939;DHT22;62291;47.554;8.504;2022-12-18T02:01:30;-1.90;99.90
73939;DHT22;62291;47.554;8.504;2022-12-18T02:03:56;-1.90;99.90
73939;DHT22;62291;47.554;8.504;2022-12-18T02:06:40;-1.80;99.90
73939;DHT22;62291;47.554;8.504;2022-12-18T02:09:14;-1.70;99.90
73939;DHT22;62291;47.554;8.504;2022-12-18T02:14:37;-1.80;99.90
73939;DHT22;62291;47.554;8.504;2022-12-18T02:17:10;-1.80;99.90
73939;DHT22;62291;47.554;8.504;2022-12-18T02:27:37;-1.90;99.90
73939;DHT22;62291;47.554;8.504;2022-12-18T02:30:04;-1.80;99.90
73939;DHT22;62291;47.554;8.504;2022-12-18T02:32:35;-1.70;99.90
73939;DHT22;62291;47.554;8.504;2022-12-18T02:35:04;-1.80;99.90
73939;DHT22;62291;47.554;8.504;2022-12-18T02:37:32;-1.90;99.90
73939;DHT22;62291;47.554;8.504;2022-12-18T02:40:00;-1.90;99.90
73939;DHT22;62291;47.554;8.504;2022-12-18T02:42:28;-1.80;99.90
73939;DHT22;62291;47.554;8.504;2022-12-18T02:44:55;-1.90;99.90
73939;DHT22;62291;47.554;8.504;2022-12-18T02:47:24;-1.90;99.90
73939;DHT22;62291;47.554;8.504;2022-12-18T02:55:30;-2.10;99.90
73939;DHT22;62291;47.554;8.504;2022-12-18T03:00:41;-2.10;99.90
73939;DHT22;62291;47.554;8.504;2022-12-18T03:05:45;-2.10;99.90
73939;DHT22;62291;47.554;8.504;2022-12-18T03:08:18;-2.10;99.90
73939;DHT22;62291;47.554;8.504;2022-12-18T03:11:06;-2.10;99.90
73939;DHT22;62291;47.554;8.504;2022-12-18T03:16:30;-2.20;99.90
73939;DHT22;62291;47.554;8.504;2022-12-18T03:19:02;-2.20;99.90
73939;DHT22;62291;47.554;8.504;2022-12-18T03:21:40;-2.10;99.90
73939;DHT22;62291;47.554;8.504;2022-12-18T03:24:08;-2.10;99.90
73939;DHT22;62291;47.554;8.504;2022-12-18T03:26:36;-2.00;99.90
73939;DHT22;62291;47.554;8.504;2022-12-18T03:29:09;-2.00;99.90
73939;DHT22;62291;47.554;8.504;2022-12-18T03:31:40;-2.10;99.90
73939;DHT22;62291;47.554;8.504;2022-12-18T03:34:13;-2.00;99.90
73939;DHT22;62291;47.554;8.504;2022-12-18T03:36:40;-2.00;99.90
73939;DHT22;62291;47.554;8.504;2022-12-18T03:39:06;-2.00;99.90
73939;DHT22;62291;47.554;8.504;2022-12-18T03:41:43;-2.00;99.90
73939;DHT22;62291;47.554;8.504;2022-12-18T03:44:13;-2.10;99.90
73939;DHT22;62291;47.554;8.504;2022-12-18T03:47:07;-2.10;99.90
73939;DHT22;62291;47.554;8.504;2022-12-18T03:54:58;-1.90;99.90
73939;DHT22;62291;47.554;8.504;2022-12-18T03:57:27;-1.80;99.90
73939;DHT22;62291;47.554;8.504;2022-12-18T04:00:07;-1.80;99.90
73939;DHT22;62291;47.554;8.504;2022-12-18T04:02:34;-1.90;99.90
73939;DHT22;62291;47.554;8.504;2022-12-18T04:05:05;-2.00;99.90
73939;DHT22;62291;47.554;8.504;2022-12-18T04:07:33;-1.90;99.90
73939;DHT22;62291;47.554;8.504;2022-12-18T04:10:00;-1.90;99.90
73939;DHT22;62291;47.554;8.504;2022-12-18T04:12:29;-1.90;99.90
73939;DHT22;62291;47.554;8.504;2022-12-18T04:14:55;-2.00;99.90
73939;DHT22;62291;47.554;8.504;2022-12-18T04:17:21;-2.00;99.90
73939;DHT22;62291;47.554;8.504;2022-12-18T04:19:48;-2.00;99.90
73939;DHT22;62291;47.554;8.504;2022-12-18T04:22:13;-2.00;99.90
73939;DHT22;62291;47.554;8.504;2022-12-18T04:24:39;-2.00;99.90
73939;DHT22;62291;47.554;8.504;2022-12-18T04:27:06;-2.10;99.90
73939;DHT22;62291;47.554;8.504;2022-12-18T04:29:32;-2.10;99.90
73939;DHT22;62291;47.554;8.504;2022-12-18T04:31:58;-2.10;99.90
73939;DHT22;62291;47.554;8.504;2022-12-18T04:34:23;-2.10;99.90
73939;DHT22;62291;47.554;8.504;2022-12-18T04:36:49;-2.10;99.90
73939;DHT22;62291;47.554;8.504;2022-12-18T04:39:15;-2.00;99.90
73939;DHT22;62291;47.554;8.504;2022-12-18T04:41:40;-2.00;99.90
73939;DHT22;62291;47.554;8.504;2022-12-18T04:44:06;-2.10;99.90
73939;DHT22;62291;47.554;8.504;2022-12-18T04:46:32;-2.10;99.90
73939;DHT22;62291;47.554;8.504;2022-12-18T04:48:58;-2.10;99.90
73939;DHT22;62291;47.554;8.504;2022-12-18T04:51:24;-2.10;99.90
73939;DHT22;62291;47.554;8.504;2022-12-18T04:53:49;-2.00;99.90
73939;DHT22;62291;47.554;8.504;2022-12-18T04:56:15;-2.00;99.90
73939;DHT22;62291;47.554;8.504;2022-12-18T04:58:43;-1.90;99.90
73939;DHT22;62291;47.554;8.504;2022-12-18T05:01:10;-1.80;99.90
73939;DHT22;62291;47.554;8.504;2022-12-18T05:03:36;-1.80;99.90
73939;DHT22;62291;47.554;8.504;2022-12-18T05:06:02;-1.80;99.90
73939;DHT22;62291;47.554;8.504;2022-12-18T05:08:28;-1.70;99.90
73939;DHT22;62291;47.554;8.504;2022-12-18T05:11:05;-1.80;99.90
73939;DHT22;62291;47.554;8.504;2022-12-18T05:13:31;-1.80;99.90
73939;DHT22;62291;47.554;8.504;2022-12-18T05:15:58;-1.90;99.90
73939;DHT22;62291;47.554;8.504;2022-12-18T05:18:24;-1.90;99.90
73939;DHT22;62291;47.554;8.504;2022-12-18T05:20:51;-2.00;99.90
73939;DHT22;62291;47.554;8.504;2022-12-18T05:23:17;-1.90;99.90
73939;DHT22;62291;47.554;8.504;2022-12-18T05:25:49;-1.90;99.90
73939;DHT22;62291;47.554;8.504;2022-12-18T05:28:15;-1.90;99.90
73939;DHT22;62291;47.554;8.504;2022-12-18T05:30:42;-2.00;99.90
73939;DHT22;62291;47.554;8.504;2022-12-18T05:33:08;-1.90;99.90
73939;DHT22;62291;47.554;8.504;2022-12-18T05:35:33;-1.90;99.90
73939;DHT22;62291;47.554;8.504;2022-12-18T05:37:59;-1.90;99.90
73939;DHT22;62291;47.554;8.504;2022-12-18T05:40:25;-1.90;99.90
73939;DHT22;62291;47.554;8.504;2022-12-18T05:42:50;-1.90;99.90
73939;DHT22;62291;47.554;8.504;2022-12-18T05:45:16;-1.80;99.90
73939;DHT22;62291;47.554;8.504;2022-12-18T05:47:42;-1.90;99.90
73939;DHT22;62291;47.554;8.504;2022-12-18T05:50:08;-2.00;99.90
73939;DHT22;62291;47.554;8.504;2022-12-18T05:52:34;-1.90;99.90
73939;DHT22;62291;47.554;8.504;2022-12-18T05:54:59;-1.90;99.90
73939;DHT22;62291;47.554;8.504;2022-12-18T05:57:25;-1.90;99.90
73939;DHT22;62291;47.554;8.504;2022-12-18T05:59:51;-1.90;99.90
73939;DHT22;62291;47.554;8.504;2022-12-18T06:02:17;-1.80;99.90
73939;DHT22;62291;47.554;8.504;2022-12-18T06:04:43;-1.70;99.90
73939;DHT22;62291;47.554;8.504;2022-12-18T06:07:08;-1.60;99.90
73939;DHT22;62291;47.554;8.504;2022-12-18T06:09:34;-1.50;99.90
73939;DHT22;62291;47.554;8.504;2022-12-18T06:12:00;-1.50;99.90
73939;DHT22;62291;47.554;8.504;2022-12-18T06:14:25;-1.50;99.90
73939;DHT22;62291;47.554;8.504;2022-12-18T06:16:51;-1.50;99.90
73939;DHT22;62291;47.554;8.504;2022-12-18T06:19:17;-1.70;99.90
73939;DHT22;62291;47.554;8.504;2022-12-18T06:21:43;-1.70;99.90
73939;DHT22;62291;47.554;8.504;2022-12-18T06:24:09;-1.70;99.90
73939;DHT22;62291;47.554;8.504;2022-12-18T06:26:37;-1.80;99.90
73939;DHT22;62291;47.554;8.504;2022-12-18T06:29:04;-1.70;99.90
73939;DHT22;62291;47.554;8.504;2022-12-18T06:31:30;-1.70;99.90
73939;DHT22;62291;47.554;8.504;2022-12-18T06:33:56;-1.50;99.90
73939;DHT22;62291;47.554;8.504;2022-12-18T06:36:21;-1.50;99.90
73939;DHT22;62291;47.554;8.504;2022-12-18T06:38:47;-1.50;99.90
73939;DHT22;62291;47.554;8.504;2022-12-18T06:41:18;-1.60;99.90
73939;DHT22;62291;47.554;8.504;2022-12-18T06:43:44;-1.60;99.90
73939;DHT22;62291;47.554;8.504;2022-12-18T06:46:11;-1.70;99.90
73939;DHT22;62291;47.554;8.504;2022-12-18T06:48:37;-1.70;99.90
73939;DHT22;62291;47.554;8.504;2022-12-18T06:51:03;-1.70;99.90
73939;DHT22;62291;47.554;8.504;2022-12-18T06:53:29;-1.70;99.90
73939;DHT22;62291;47.554;8.504;2022-12-18T06:56:03;-1.70;99.90
73939;DHT22;62291;47.554;8.504;2022-12-18T06:58:29;-1.70;99.90
73939;DHT22;62291;47.554;8.504;2022-12-18T07:01:02;-1.80;99.90
73939;DHT22;62291;47.554;8.504;2022-12-18T07:03:29;-1.70;99.90
73939;DHT22;62291;47.554;8.504;2022-12-18T07:05:54;-1.60;99.90
73939;DHT22;62291;47.554;8.504;2022-12-18T07:08:20;-1.70;99.90
73939;DHT22;62291;47.554;8.504;2022-12-18T07:10:46;-1.70;99.90
73939;DHT22;62291;47.554;8.504;2022-12-18T07:13:14;-1.70;99.90
73939;DHT22;62291;47.554;8.504;2022-12-18T07:15:40;-1.70;99.90
73939;DHT22;62291;47.554;8.504;2022-12-18T07:18:06;-1.60;99.90
73939;DHT22;62291;47.554;8.504;2022-12-18T07:20:32;-1.60;99.90
73939;DHT22;62291;47.554;8.504;2022-12-18T07:22:57;-1.60;99.90
73939;DHT22;62291;47.554;8.504;2022-12-18T07:25:23;-1.70;99.90
73939;DHT22;62291;47.554;8.504;2022-12-18T07:27:49;-1.60;99.90
73939;DHT22;62291;47.554;8.504;2022-12-18T07:30:14;-1.50;99.90
73939;DHT22;62291;47.554;8.504;2022-12-18T07:32:40;-1.40;99.90
73939;DHT22;62291;47.554;8.504;2022-12-18T07:35:06;-1.30;99.90
73939;DHT22;62291;47.554;8.504;2022-12-18T07:37:32;-1.30;99.90
73939;DHT22;62291;47.554;8.504;2022-12-18T07:39:57;-1.30;99.90
73939;DHT22;62291;47.554;8.504;2022-12-18T07:42:23;-1.30;99.90
73939;DHT22;62291;47.554;8.504;2022-12-18T07:45:01;-1.20;99.90
73939;DHT22;62291;47.554;8.504;2022-12-18T07:47:28;-1.30;99.90
73939;DHT22;62291;47.554;8.504;2022-12-18T07:49:54;-1.20;99.90
73939;DHT22;62291;47.554;8.504;2022-12-18T07:52:20;-1.20;99.90
73939;DHT22;62291;47.554;8.504;2022-12-18T07:54:45;-1.20;99.90
73939;DHT22;62291;47.554;8.504;2022-12-18T07:57:12;-1.10;99.90
73939;DHT22;62291;47.554;8.504;2022-12-18T07:59:39;-1.10;99.90
73939;DHT22;62291;47.554;8.504;2022-12-18T08:02:05;-1.10;99.90
73939;DHT22;62291;47.554;8.504;2022-12-18T08:04:31;-1.20;99.90
73939;DHT22;62291;47.554;8.504;2022-12-18T08:06:57;-1.30;99.90
73939;DHT22;62291;47.554;8.504;2022-12-18T08:09:22;-1.40;99.90
73939;DHT22;62291;47.554;8.504;2022-12-18T08:11:48;-1.40;99.90
73939;DHT22;62291;47.554;8.504;2022-12-18T08:14:14;-1.40;99.90
73939;DHT22;62291;47.554;8.504;2022-12-18T08:16:40;-1.40;99.90
73939;DHT22;62291;47.554;8.504;2022-12-18T08:19:05;-1.40;99.90
73939;DHT22;62291;47.554;8.504;2022-12-18T08:21:31;-1.40;99.90
73939;DHT22;62291;47.554;8.504;2022-12-18T08:23:59;-1.40;99.90
73939;DHT22;62291;47.554;8.504;2022-12-18T08:26:27;-1.40;99.90
73939;DHT22;62291;47.554;8.504;2022-12-18T08:28:55;-1.20;99.90
73939;DHT22;62291;47.554;8.504;2022-12-18T08:31:21;-1.20;99.90
73939;DHT22;62291;47.554;8.504;2022-12-18T08:33:52;-1.20;99.90
73939;DHT22;62291;47.554;8.504;2022-12-18T08:36:18;-1.10;99.90
73939;DHT22;62291;47.554;8.504;2022-12-18T08:38:44;-1.10;99.90
73939;DHT22;62291;47.554;8.504;2022-12-18T08:41:12;-1.10;99.90
73939;DHT22;62291;47.554;8.504;2022-12-18T08:43:38;-1.20;99.90
73939;DHT22;62291;47.554;8.504;2022-12-18T08:46:24;-1.20;99.90
73939;DHT22;62291;47.554;8.504;2022-12-18T08:48:51;-1.10;99.90
73939;DHT22;62291;47.554;8.504;2022-12-18T08:51:18;-1.00;99.90
73939;DHT22;62291;47.554;8.504;2022-12-18T08:53:44;-0.90;99.90
73939;DHT22;62291;47.554;8.504;2022-12-18T08:56:10;-0.80;99.90
73939;DHT22;62291;47.554;8.504;2022-12-18T08:58:36;-0.90;99.90
73939;DHT22;62291;47.554;8.504;2022-12-18T09:01:08;-0.90;99.90
73939;DHT22;62291;47.554;8.504;2022-12-18T09:03:35;-0.80;99.90
73939;DHT22;62291;47.554;8.504;2022-12-18T09:06:01;-0.90;99.90
73939;DHT22;62291;47.554;8.504;2022-12-18T09:08:27;-0.90;99.90
73939;DHT22;62291;47.554;8.504;2022-12-18T09:10:53;-0.80;99.90
73939;DHT22;62291;47.554;8.504;2022-12-18T09:13:19;-0.60;99.90
73939;DHT22;62291;47.554;8.504;2022-12-18T09:15:48;-0.70;99.90
73939;DHT22;62291;47.554;8.504;2022-12-18T09:18:15;-0.70;99.90
73939;DHT22;62291;47.554;8.504;2022-12-18T09:20:41;-0.80;99.90
73939;DHT22;62291;47.554;8.504;2022-12-18T09:23:07;-0.70;99.90
73939;DHT22;62291;47.554;8.504;2022-12-18T09:25:33;-0.80;99.90
73939;DHT22;62291;47.554;8.504;2022-12-18T09:28:06;-0.70;99.90
73939;DHT22;62291;47.554;8.504;2022-12-18T09:30:32;-0.70;99.90
73939;DHT22;62291;47.554;8.504;2022-12-18T09:33:01;-0.60;99.90
73939;DHT22;62291;47.554;8.504;2022-12-18T09:35:27;-0.60;99.90
73939;DHT22;62291;47.554;8.504;2022-12-18T09:37:53;-0.70;99.90
73939;DHT22;62291;47.554;8.504;2022-12-18T09:40:25;-0.60;99.90
73939;DHT22;62291;47.554;8.504;2022-12-18T09:42:59;-0.60;99.90
73939;DHT22;62291;47.554;8.504;2022-12-18T09:45:26;-0.60;99.90
73939;DHT22;62291;47.554;8.504;2022-12-18T09:47:54;-0.60;99.90
73939;DHT22;62291;47.554;8.504;2022-12-18T09:50:29;-0.50;99.90
73939;DHT22;62291;47.554;8.504;2022-12-18T09:52:59;-0.40;99.90
73939;DHT22;62291;47.554;8.504;2022-12-18T09:55:37;-0.40;99.90
73939;DHT22;62291;47.554;8.504;2022-12-18T10:00:35;-0.40;99.90
73939;DHT22;62291;47.554;8.504;2022-12-18T10:03:15;-0.40;99.90
73939;DHT22;62291;47.554;8.504;2022-12-18T10:06:02;-0.30;99.90
73939;DHT22;62291;47.554;8.504;2022-12-18T10:13:53;-0.20;99.90
73939;DHT22;62291;47.554;8.504;2022-12-18T10:24:19;0.10;99.90
73939;DHT22;62291;47.554;8.504;2022-12-18T10:26:47;0.00;99.90
73939;DHT22;62291;47.554;8.504;2022-12-18T10:29:14;0.00;99.90
73939;DHT22;62291;47.554;8.504;2022-12-18T10:31:40;0.10;99.90
73939;DHT22;62291;47.554;8.504;2022-12-18T10:34:10;0.30;99.90
73939;DHT22;62291;47.554;8.504;2022-12-18T10:36:37;0.60;99.90
73939;DHT22;62291;47.554;8.504;2022-12-18T10:39:23;0.50;99.90
73939;DHT22;62291;47.554;8.504;2022-12-18T10:41:49;0.50;99.90
73939;DHT22;62291;47.554;8.504;2022-12-18T10:44:22;0.50;99.90
73939;DHT22;62291;47.554;8.504;2022-12-18T10:46:51;0.50;99.90
73939;DHT22;62291;47.554;8.504;2022-12-18T10:49:30;0.40;99.90
73939;DHT22;62291;47.554;8.504;2022-12-18T10:52:18;0.50;99.90
73939;DHT22;62291;47.554;8.504;2022-12-18T10:55:04;0.70;99.90
73939;DHT22;62291;47.554;8.504;2022-12-18T10:57:38;0.60;99.90
73939;DHT22;62291;47.554;8.504;2022-12-18T11:00:26;0.40;99.90
73939;DHT22;62291;47.554;8.504;2022-12-18T11:02:53;0.50;99.90
73939;DHT22;62291;47.554;8.504;2022-12-18T11:07:51;0.90;99.90
73939;DHT22;62291;47.554;8.504;2022-12-18T11:10:21;1.00;99.90
73939;DHT22;62291;47.554;8.504;2022-12-18T11:12:48;1.10;99.90
73939;DHT22;62291;47.554;8.504;2022-12-18T11:15:34;1.10;99.90
73939;DHT22;62291;47.554;8.504;2022-12-18T11:17:59;1.20;99.90
73939;DHT22;62291;47.554;8.504;2022-12-18T11:20:32;1.20;99.90
73939;DHT22;62291;47.554;8.504;2022-12-18T11:23:20;1.30;99.90
73939;DHT22;62291;47.554;8.504;2022-12-18T11:25:56;1.20;99.90
73939;DHT22;62291;47.554;8.504;2022-12-18T11:31:23;0.90;99.90
73939;DHT22;62291;47.554;8.504;2022-12-18T11:34:32;1.10;99.90
73939;DHT22;62291;47.554;8.504;2022-12-18T11:36:51;1.00;99.90
73939;DHT22;62291;47.554;8.504;2022-12-18T11:39:30;1.10;99.90
73939;DHT22;62291;47.554;8.504;2022-12-18T11:42:14;1.10;99.90
73939;DHT22;62291;47.554;8.504;2022-12-18T11:48:02;1.40;99.90
73939;DHT22;62291;47.554;8.504;2022-12-18T11:52:58;1.60;99.90
73939;DHT22;62291;47.554;8.504;2022-12-18T11:58:27;1.80;99.90
73939;DHT22;62291;47.554;8.504;2022-12-18T12:01:07;1.80;99.90
73939;DHT22;62291;47.554;8.504;2022-12-18T12:03:41;1.80;99.90
73939;DHT22;62291;47.554;8.504;2022-12-18T12:06:23;1.90;99.90
73939;DHT22;62291;47.554;8.504;2022-12-18T12:09:00;2.00;99.90
73939;DHT22;62291;47.554;8.504;2022-12-18T12:14:14;2.10;99.90
73939;DHT22;62291;47.554;8.504;2022-12-18T12:19:54;1.90;99.90
73939;DHT22;62291;47.554;8.504;2022-12-18T12:22:51;2.00;99.90
73939;DHT22;62291;47.554;8.504;2022-12-18T12:38:48;2.10;99.90
73939;DHT22;62291;47.554;8.504;2022-12-18T12:41:20;2.10;99.90
73939;DHT22;62291;47.554;8.504;2022-12-18T12:44:09;2.00;99.90
73939;DHT22;62291;47.554;8.504;2022-12-18T12:46:40;1.80;99.90
73939;DHT22;62291;47.554;8.504;2022-12-18T12:49:17;1.70;99.90
73939;DHT22;62291;47.554;8.504;2022-12-18T12:51:47;1.60;99.90
73939;DHT22;62291;47.554;8.504;2022-12-18T12:54:21;1.60;99.90
73939;DHT22;62291;47.554;8.504;2022-12-18T12:56:50;1.50;99.90
73939;DHT22;62291;47.554;8.504;2022-12-18T13:04:50;1.40;99.90
73939;DHT22;62291;47.554;8.504;2022-12-18T13:07:35;1.40;99.90
73939;DHT22;62291;47.554;8.504;2022-12-18T13:16:05;1.70;99.90
73939;DHT22;62291;47.554;8.504;2022-12-18T13:18:32;1.70;99.90
73939;DHT22;62291;47.554;8.504;2022-12-18T13:26:00;1.80;99.90
73939;DHT22;62291;47.554;8.504;2022-12-18T13:34:38;1.80;99.90
73939;DHT22;62291;47.554;8.504;2022-12-18T13:39:56;1.80;99.90
73939;DHT22;62291;47.554;8.504;2022-12-18T13:42:38;1.70;99.90
73939;DHT22;62291;47.554;8.504;2022-12-18T13:45:40;1.60;99.90
73939;DHT22;62291;47.554;8.504;2022-12-18T13:48:22;1.60;99.90
73939;DHT22;62291;47.554;8.504;2022-12-18T13:50:55;1.60;99.90
73939;DHT22;62291;47.554;8.504;2022-12-18T13:53:26;1.60;99.90
73939;DHT22;62291;47.554;8.504;2022-12-18T13:55:53;1.60;99.90
73939;DHT22;62291;47.554;8.504;2022-12-18T13:58:18;1.60;99.90
73939;DHT22;62291;47.554;8.504;2022-12-18T14:00:44;1.60;99.90
73939;DHT22;62291;47.554;8.504;2022-12-18T14:03:24;1.60;99.90
73939;DHT22;62291;47.554;8.504;2022-12-18T14:05:54;1.60;99.90
73939;DHT22;62291;47.554;8.504;2022-12-18T14:08:21;1.50;99.90
73939;DHT22;62291;47.554;8.504;2022-12-18T14:10:48;1.60;99.90
73939;DHT22;62291;47.554;8.504;2022-12-18T14:13:23;1.60;99.90
73939;DHT22;62291;47.554;8.504;2022-12-18T14:15:51;1.60;99.90
73939;DHT22;62291;47.554;8.504;2022-12-18T14:21:02;1.60;99.90
73939;DHT22;62291;47.554;8.504;2022-12-18T14:23:36;1.60;99.90
73939;DHT22;62291;47.554;8.504;2022-12-18T14:26:23;1.60;99.90
73939;DHT22;62291;47.554;8.504;2022-12-18T14:28:49;1.50;99.90
73939;DHT22;62291;47.554;8.504;2022-12-18T14:31:25;1.50;99.90
73939;DHT22;62291;47.554;8.504;2022-12-18T14:33:52;1.60;99.90
73939;DHT22;62291;47.554;8.504;2022-12-18T14:36:24;1.60;99.90
73939;DHT22;62291;47.554;8.504;2022-12-18T14:38:53;1.60;99.90
73939;DHT22;62291;47.554;8.504;2022-12-18T14:41:21;1.60;99.90
73939;DHT22;62291;47.554;8.504;2022-12-18T14:43:49;1.50;99.90
73939;DHT22;62291;47.554;8.504;2022-12-18T14:48:53;1.50;99.90
73939;DHT22;62291;47.554;8.504;2022-12-18T14:51:27;1.50;99.90
73939;DHT22;62291;47.554;8.504;2022-12-18T14:53:56;1.40;99.90
73939;DHT22;62291;47.554;8.504;2022-12-18T14:56:36;1.40;99.90
73939;DHT22;62291;47.554;8.504;2022-12-18T14:59:21;1.40;99.90
73939;DHT22;62291;47.554;8.504;2022-12-18T15:02:22;1.30;99.90
73939;DHT22;62291;47.554;8.504;2022-12-18T15:05:03;1.30;99.90
73939;DHT22;62291;47.554;8.504;2022-12-18T15:07:50;1.20;99.90
73939;DHT22;62291;47.554;8.504;2022-12-18T15:10:20;1.10;99.90
73939;DHT22;62291;47.554;8.504;2022-12-18T15:20:52;0.50;99.90
73939;DHT22;62291;47.554;8.504;2022-12-18T15:23:45;0.50;99.90
73939;DHT22;62291;47.554;8.504;2022-12-18T15:26:14;0.60;99.90
73939;DHT22;62291;47.554;8.504;2022-12-18T15:28:54;0.50;99.90
73939;DHT22;62291;47.554;8.504;2022-12-18T15:36:22;0.20;99.90
73939;DHT22;62291;47.554;8.504;2022-12-18T15:38:53;0.30;99.90
73939;DHT22;62291;47.554;8.504;2022-12-18T15:41:21;0.30;99.90
73939;DHT22;62291;47.554;8.504;2022-12-18T15:43:48;0.20;99.90
73939;DHT22;62291;47.554;8.504;2022-12-18T15:46:19;0.10;99.90
73939;DHT22;62291;47.554;8.504;2022-12-18T15:48:50;0.10;99.90
73939;DHT22;62291;47.554;8.504;2022-12-18T15:53:43;0.00;99.90
73939;DHT22;62291;47.554;8.504;2022-12-18T15:56:11;0.00;99.90
73939;DHT22;62291;47.554;8.504;2022-12-18T15:58:55;0.00;99.90
73939;DHT22;62291;47.554;8.504;2022-12-18T16:01:23;-0.10;99.90
73939;DHT22;62291;47.554;8.504;2022-12-18T16:03:50;-0.10;99.90
73939;DHT22;62291;47.554;8.504;2022-12-18T16:06:16;0.00;99.90
73939;DHT22;62291;47.554;8.504;2022-12-18T16:08:42;0.00;99.90
73939;DHT22;62291;47.554;8.504;2022-12-18T16:11:34;0.00;99.90
73939;DHT22;62291;47.554;8.504;2022-12-18T16:14:23;0.00;99.90
73939;DHT22;62291;47.554;8.504;2022-12-18T16:17:04;0.00;99.90
73939;DHT22;62291;47.554;8.504;2022-12-18T16:19:30;0.00;99.90
73939;DHT22;62291;47.554;8.504;2022-12-18T16:21:57;-0.10;99.90
73939;DHT22;62291;47.554;8.504;2022-12-18T16:24:28;-0.20;99.90
73939;DHT22;62291;47.554;8.504;2022-12-18T16:26:56;-0.10;99.90
73939;DHT22;62291;47.554;8.504;2022-12-18T16:29:23;-0.30;99.90
73939;DHT22;62291;47.554;8.504;2022-12-18T16:31:59;-0.30;99.90
73939;DHT22;62291;47.554;8.504;2022-12-18T16:34:27;-0.20;99.90
73939;DHT22;62291;47.554;8.504;2022-12-18T16:37:00;-0.30;99.90
73939;DHT22;62291;47.554;8.504;2022-12-18T16:39:27;-0.40;99.90
73939;DHT22;62291;47.554;8.504;2022-12-18T16:41:53;-0.40;99.90
73939;DHT22;62291;47.554;8.504;2022-12-18T16:44:19;-0.30;99.90
73939;DHT22;62291;47.554;8.504;2022-12-18T16:46:45;-0.20;99.90
73939;DHT22;62291;47.554;8.504;2022-12-18T16:49:16;-0.20;99.90
73939;DHT22;62291;47.554;8.504;2022-12-18T16:51:42;-0.20;99.90
73939;DHT22;62291;47.554;8.504;2022-12-18T16:54:08;-0.30;99.90
73939;DHT22;62291;47.554;8.504;2022-12-18T16:56:34;-0.40;99.90
73939;DHT22;62291;47.554;8.504;2022-12-18T16:59:01;-0.40;99.90
73939;DHT22;62291;47.554;8.504;2022-12-18T17:01:29;-0.40;99.90
73939;DHT22;62291;47.554;8.504;2022-12-18T17:03:57;-0.40;99.90
73939;DHT22;62291;47.554;8.504;2022-12-18T17:06:24;-0.50;99.90
73939;DHT22;62291;47.554;8.504;2022-12-18T17:09:02;-0.50;99.90
73939;DHT22;62291;47.554;8.504;2022-12-18T17:11:30;-0.50;99.90
73939;DHT22;62291;47.554;8.504;2022-12-18T17:13:57;-0.60;99.90
73939;DHT22;62291;47.554;8.504;2022-12-18T17:16:23;-0.60;99.90
73939;DHT22;62291;47.554;8.504;2022-12-18T17:18:50;-0.60;99.90
73939;DHT22;62291;47.554;8.504;2022-12-18T17:21:16;-0.60;99.90
73939;DHT22;62291;47.554;8.504;2022-12-18T17:23:43;-0.70;99.90
73939;DHT22;62291;47.554;8.504;2022-12-18T17:26:09;-0.70;99.90
73939;DHT22;62291;47.554;8.504;2022-12-18T17:28:37;-0.70;99.90
73939;DHT22;62291;47.554;8.504;2022-12-18T17:31:16;-0.70;99.90
73939;DHT22;62291;47.554;8.504;2022-12-18T17:33:43;-0.70;99.90
73939;DHT22;62291;47.554;8.504;2022-12-18T17:36:10;-0.70;99.90
73939;DHT22;62291;47.554;8.504;2022-12-18T17:38:36;-0.80;99.90
73939;DHT22;62291;47.554;8.504;2022-12-18T17:41:06;-0.80;99.90
73939;DHT22;62291;47.554;8.504;2022-12-18T17:43:32;-0.80;99.90
73939;DHT22;62291;47.554;8.504;2022-12-18T17:46:02;-0.80;99.90
73939;DHT22;62291;47.554;8.504;2022-12-18T17:48:28;-0.70;99.90
73939;DHT22;62291;47.554;8.504;2022-12-18T17:50:54;-0.70;99.90
73939;DHT22;62291;47.554;8.504;2022-12-18T17:53:20;-0.70;99.90
73939;DHT22;62291;47.554;8.504;2022-12-18T17:55:56;-0.70;99.90